Terminal Aerodrome Forecast
Issued by NWS Twin Cities, MN

Home | Current Version | Previous Version | Graphics & Text | Print | Product List | Glossary On
Versions: 1 2 3 4 5 6 7 8 9 10 11 12 13 14 15 16 17
000
FTUS43 KMPX 310524
TAFSTC
TAF
KSTC 310524Z 3106/0106 20005KT P6SM SCT025
     FM311030 34008KT P6SM OVC020
     FM312100 03011KT P6SM FEW015 BKN250
     FM010300 04012KT P6SM BKN060=

USA.gov is the U.S. government's official web portal to all federal, state and local government web resources and services.